createdAt,value
2018-02-19T00:00:27.692Z,36.55
2018-02-19T00:02:55.220Z,34.85
2018-02-19T00:05:22.772Z,35.47
2018-02-19T00:07:50.269Z,30.05
2018-02-19T00:10:17.787Z,37.15
2018-02-19T00:12:45.319Z,34.55
2018-02-19T00:15:12.844Z,31.35
2018-02-19T00:17:40.366Z,35.90
2018-02-19T00:20:07.916Z,37.67
2018-02-19T00:22:35.441Z,35.53
2018-02-19T00:25:02.945Z,36.40
2018-02-19T00:27:30.482Z,34.40
2018-02-19T00:29:57.980Z,36.33
2018-02-19T00:32:27.704Z,32.25
2018-02-19T00:34:57.201Z,36.40
2018-02-19T00:37:25.478Z,39.15
2018-02-19T00:39:53.749Z,38.95
2018-02-19T00:42:22.061Z,32.75
2018-02-19T00:44:49.564Z,40.75
2018-02-19T00:47:17.079Z,34.55
2018-02-19T00:49:44.614Z,40.45
2018-02-19T00:52:12.127Z,33.83
2018-02-19T00:54:39.621Z,29.08
2018-02-19T00:57:07.934Z,32.70
2018-02-19T00:59:35.443Z,36.35
2018-02-19T01:02:03.738Z,39.42
2018-02-19T01:04:32.045Z,33.13
2018-02-19T01:06:59.559Z,38.70
2018-02-19T01:09:27.839Z,37.50
2018-02-19T01:11:56.156Z,38.47
2018-02-19T01:14:23.656Z,35.78
2018-02-19T01:16:51.169Z,32.83
2018-02-19T01:19:18.703Z,34.50
2018-02-19T01:21:46.978Z,40.85
2018-02-19T01:24:14.500Z,33.13
2018-02-19T01:26:42.048Z,40.12
2018-02-19T01:29:09.548Z,34.47
2018-02-19T01:31:37.818Z,32.92
2018-02-19T01:34:06.123Z,34.00
2018-02-19T01:36:33.647Z,35.13
2018-02-19T01:39:01.952Z,34.30
2018-02-19T01:41:29.491Z,37.72
2018-02-19T01:43:57.766Z,34.65
2018-02-19T01:46:26.042Z,31.48
2018-02-19T01:48:54.343Z,29.95
2018-02-19T01:51:21.869Z,27.42
2018-02-19T01:53:50.159Z,37.08
2018-02-19T01:56:18.458Z,37.33
2018-02-19T01:58:45.984Z,31.58
2018-02-19T02:01:15.301Z,33.17
2018-02-19T02:03:43.615Z,35.03
2018-02-19T02:06:11.143Z,35.28
2018-02-19T02:08:38.659Z,37.03
2018-02-19T02:11:06.193Z,34.70
2018-02-19T02:13:33.692Z,33.38
2018-02-19T02:16:01.188Z,29.95
2018-02-19T02:18:28.732Z,32.47
2018-02-19T02:20:56.245Z,30.67
2018-02-19T02:23:23.758Z,34.72
2018-02-19T02:25:51.277Z,33.08
2018-02-19T02:28:18.800Z,30.48
2018-02-19T02:30:46.298Z,35.22
2018-02-19T02:33:13.860Z,34.30
2018-02-19T02:35:41.374Z,35.88
2018-02-19T02:38:08.889Z,36.42
2018-02-19T02:40:37.180Z,34.65
2018-02-19T02:43:04.678Z,28.17
2018-02-19T02:45:32.197Z,32.60
2018-02-19T02:47:59.735Z,34.20
2018-02-19T02:50:28.014Z,33.90
2018-02-19T02:52:56.303Z,32.50
2018-02-19T02:55:24.590Z,44.67
2018-02-19T02:57:52.119Z,42.60
2018-02-19T03:00:20.403Z,35.13
2018-02-19T03:02:48.718Z,30.42
2018-02-19T03:05:16.230Z,30.37
2018-02-19T03:07:43.742Z,38.08
2018-02-19T03:10:11.288Z,34.10
2018-02-19T03:12:38.812Z,33.33
2018-02-19T03:15:07.086Z,29.00
2018-02-19T03:17:34.618Z,30.10
2018-02-19T03:20:02.132Z,32.10
2018-02-19T03:22:29.646Z,33.17
2018-02-19T03:24:57.186Z,28.52
2018-02-19T03:27:24.689Z,32.53
2018-02-19T03:29:52.983Z,32.55
2018-02-19T03:32:20.519Z,29.08
2018-02-19T03:34:48.798Z,33.40
2018-02-19T03:37:17.110Z,33.20
2018-02-19T03:39:44.646Z,36.40
2018-02-19T03:42:12.162Z,30.20
2018-02-19T03:44:39.674Z,28.95
2018-02-19T03:47:07.224Z,30.20
2018-02-19T03:49:35.512Z,29.37
2018-02-19T03:52:03.012Z,31.83
2018-02-19T03:54:30.545Z,30.98
2018-02-19T03:56:58.055Z,27.05
2018-02-19T03:59:26.324Z,30.70
2018-02-19T04:01:53.845Z,27.52
2018-02-19T04:04:21.340Z,29.65
2018-02-19T04:06:48.849Z,29.48
2018-02-19T04:09:16.377Z,33.95
2018-02-19T04:11:44.648Z,29.05
2018-02-19T04:14:12.935Z,32.20
2018-02-19T04:16:40.460Z,31.15
2018-02-19T04:19:07.979Z,29.60
2018-02-19T04:21:35.499Z,29.37
2018-02-19T04:24:03.821Z,35.63
2018-02-19T04:26:31.324Z,33.38
2018-02-19T04:28:58.848Z,33.45
2018-02-19T04:31:26.376Z,31.85
2018-02-19T04:33:53.898Z,31.50
2018-02-19T04:36:21.402Z,33.30
2018-02-19T04:38:48.939Z,27.60
2018-02-19T04:41:17.218Z,34.63
2018-02-19T04:43:45.507Z,32.05
2018-02-19T04:46:15.561Z,33.47
2018-02-19T04:48:43.068Z,31.80
2018-02-19T04:51:11.351Z,35.95
2018-02-19T04:53:38.900Z,37.00
2018-02-19T04:56:07.191Z,30.62
2018-02-19T04:58:34.715Z,28.67
2018-02-19T05:01:02.264Z,31.62
2018-02-19T05:03:29.788Z,29.58
2018-02-19T05:05:57.311Z,32.92
2018-02-19T05:08:25.621Z,29.50
2018-02-19T05:10:53.130Z,34.88
2018-02-19T05:13:21.424Z,30.17
2018-02-19T05:15:49.721Z,29.63
2018-02-19T05:18:17.241Z,29.08
2018-02-19T05:20:44.768Z,31.33
2018-02-19T05:23:12.315Z,27.10
2018-02-19T05:25:39.830Z,28.87
2018-02-19T05:28:08.256Z,33.60
2018-02-19T05:30:35.783Z,26.30
2018-02-19T05:33:03.307Z,29.77
2018-02-19T05:35:30.827Z,28.65
2018-02-19T05:37:58.363Z,25.90
2018-02-19T05:40:25.883Z,32.35
2018-02-19T05:42:53.400Z,26.92
2018-02-19T05:45:20.937Z,31.83
2018-02-19T05:47:48.788Z,31.70
2018-02-19T05:50:17.071Z,30.42
2018-02-19T05:52:45.386Z,32.75
2018-02-19T05:55:12.898Z,26.48
2018-02-19T05:57:41.178Z,24.40
2018-02-19T06:00:09.474Z,28.52
2018-02-19T06:02:37.048Z,29.00
2018-02-19T06:05:04.553Z,31.52
2018-02-19T06:07:32.087Z,31.52
2018-02-19T06:09:59.612Z,25.85
2018-02-19T06:12:27.169Z,29.48
2018-02-19T06:14:55.945Z,31.83
2018-02-19T06:17:24.218Z,33.13
2018-02-19T06:19:52.501Z,32.55
2018-02-19T06:22:20.028Z,27.17
2018-02-19T06:24:47.552Z,27.42
2018-02-19T06:27:15.071Z,32.70
2018-02-19T06:29:43.380Z,27.73
2018-02-19T06:32:10.881Z,28.92
2018-02-19T06:34:38.383Z,28.87
2018-02-19T06:37:05.900Z,33.22
2018-02-19T06:39:33.416Z,28.35
2018-02-19T06:42:00.908Z,31.87
2018-02-19T06:44:28.447Z,29.87
2018-02-19T06:46:55.972Z,25.45
2018-02-19T06:49:23.487Z,25.30
2018-02-19T06:51:51.019Z,25.42
2018-02-19T06:54:18.542Z,26.05
2018-02-19T06:56:46.064Z,35.72
2018-02-19T06:59:13.621Z,26.25
2018-02-19T07:01:41.144Z,30.70
2018-02-19T07:04:08.663Z,28.90
2018-02-19T07:06:36.980Z,35.78
2018-02-19T07:09:04.502Z,28.75
2018-02-19T07:11:32.773Z,30.30
2018-02-19T07:14:01.084Z,30.92
2018-02-19T07:16:28.594Z,32.28
2018-02-19T07:18:56.098Z,27.85
2018-02-19T07:21:23.625Z,26.70
2018-02-19T07:23:51.898Z,30.60
2018-02-19T07:26:20.175Z,27.90
2018-02-19T07:28:48.492Z,29.33
2018-02-19T07:31:16.002Z,27.83
2018-02-19T07:33:43.512Z,30.80
2018-02-19T07:36:11.043Z,23.65
2018-02-19T07:38:38.555Z,28.67
2018-02-19T07:41:06.064Z,27.17
2018-02-19T07:43:33.584Z,25.27
2018-02-19T07:46:01.103Z,28.60
2018-02-19T07:48:28.603Z,33.22
2018-02-19T07:50:56.129Z,26.92
2018-02-19T07:53:23.648Z,30.58
2018-02-19T07:55:51.940Z,31.00
2018-02-19T07:58:19.464Z,34.95
2018-02-19T08:00:46.968Z,26.15
2018-02-19T08:03:14.483Z,27.13
2018-02-19T08:05:42.786Z,33.15
2018-02-19T08:08:10.308Z,25.80
2018-02-19T08:10:37.813Z,31.95
2018-02-19T08:13:05.365Z,35.17
2018-02-19T08:15:32.900Z,30.10
2018-02-19T08:18:01.169Z,26.70
2018-02-19T08:20:28.688Z,23.75
2018-02-19T08:22:56.203Z,26.12
2018-02-19T08:25:24.493Z,27.52
2018-02-19T08:27:52.030Z,23.52
2018-02-19T08:30:20.316Z,32.65
2018-02-19T08:32:48.598Z,31.80
2018-02-19T08:35:16.134Z,29.27
2018-02-19T08:37:43.655Z,24.83
2018-02-19T08:40:11.172Z,27.23
2018-02-19T08:42:39.475Z,26.12
2018-02-19T08:45:07.002Z,31.30
2018-02-19T08:47:36.128Z,31.65
2018-02-19T08:50:03.663Z,30.30
2018-02-19T08:52:31.198Z,27.92
2018-02-19T08:54:59.487Z,33.92
2018-02-19T08:57:27.790Z,29.60
2018-02-19T08:59:55.293Z,32.50
2018-02-19T09:02:22.805Z,29.80
2018-02-19T09:04:50.350Z,32.97
2018-02-19T09:07:18.617Z,28.20
2018-02-19T09:09:46.905Z,27.48
2018-02-19T09:12:14.448Z,33.17
2018-02-19T09:14:42.716Z,35.65
2018-02-19T09:17:10.243Z,30.50
2018-02-19T09:19:37.783Z,29.87
2018-02-19T09:22:05.280Z,36.67
2018-02-19T09:24:32.819Z,27.20
2018-02-19T09:27:00.341Z,34.35
2018-02-19T09:29:27.868Z,25.35
2018-02-19T09:31:56.155Z,31.73
2018-02-19T09:34:24.466Z,29.25
2018-02-19T09:36:51.986Z,24.10
2018-02-19T09:39:20.263Z,30.58
2018-02-19T09:41:47.828Z,33.00
2018-02-19T09:44:16.128Z,27.50
2018-02-19T09:46:43.646Z,23.55
2018-02-19T09:49:11.182Z,21.73
2018-02-19T09:51:38.708Z,26.02
2018-02-19T09:54:06.209Z,24.17
2018-02-19T09:56:33.752Z,27.45
2018-02-19T09:59:01.262Z,22.27
2018-02-19T10:01:29.556Z,21.40
2018-02-19T10:03:57.090Z,20.52
2018-02-19T10:06:25.378Z,22.83
2018-02-19T10:08:53.653Z,19.62
2018-02-19T10:11:21.951Z,23.67
2018-02-19T10:13:49.459Z,23.20
2018-02-19T10:16:16.969Z,23.65
2018-02-19T10:18:44.502Z,21.27
2018-02-19T10:21:12.865Z,26.45
2018-02-19T10:23:40.320Z,25.80
2018-02-19T10:26:07.858Z,24.95
2018-02-19T10:28:35.371Z,23.75
2018-02-19T10:31:02.890Z,26.67
2018-02-19T10:33:30.426Z,24.08
2018-02-19T10:35:57.938Z,23.65
2018-02-19T10:38:26.230Z,26.75
2018-02-19T10:40:53.759Z,27.30
2018-02-19T10:43:22.048Z,24.80
2018-02-19T10:45:50.326Z,22.87
2018-02-19T10:48:17.864Z,22.08
2018-02-19T10:50:46.145Z,27.10
2018-02-19T10:53:14.423Z,26.95
2018-02-19T10:55:42.712Z,25.12
2018-02-19T10:58:10.980Z,27.73
2018-02-19T11:00:44.909Z,25.42
2018-02-19T11:03:12.439Z,26.83
2018-02-19T11:05:40.732Z,22.52
2018-02-19T11:08:09.040Z,24.60
2018-02-19T11:10:36.559Z,26.15
2018-02-19T11:13:04.851Z,25.58
2018-02-19T11:15:32.380Z,24.98
2018-02-19T11:17:59.890Z,32.17
2018-02-19T11:20:27.412Z,31.58
2018-02-19T11:22:55.709Z,32.45
2018-02-19T11:25:23.214Z,27.23
2018-02-19T11:27:50.726Z,28.80
2018-02-19T11:30:18.263Z,26.83
2018-02-19T11:32:46.529Z,29.52
2018-02-19T11:35:14.047Z,24.00
2018-02-19T11:37:41.594Z,30.50
2018-02-19T11:40:09.111Z,29.50
2018-02-19T11:42:37.390Z,32.15
2018-02-19T11:45:05.691Z,27.70
2018-02-19T11:47:33.212Z,31.48
2018-02-19T11:50:00.727Z,27.48
2018-02-19T11:52:28.273Z,28.83
2018-02-19T11:54:55.791Z,32.85
2018-02-19T11:57:23.322Z,27.92
2018-02-19T11:59:50.869Z,29.30
2018-02-19T12:02:19.159Z,29.60
2018-02-19T12:04:46.656Z,30.23
2018-02-19T12:07:14.960Z,25.98
2018-02-19T12:09:42.460Z,28.33
2018-02-19T12:12:09.972Z,23.52
2018-02-19T12:14:37.528Z,28.35
2018-02-19T12:17:05.055Z,28.25
2018-02-19T12:19:32.566Z,29.65
2018-02-19T12:22:00.093Z,26.37
2018-02-19T12:24:28.357Z,27.10
2018-02-19T12:26:56.649Z,28.73
2018-02-19T12:29:24.182Z,24.85
2018-02-19T12:31:51.694Z,28.02
2018-02-19T12:34:19.199Z,22.55
2018-02-19T12:36:46.720Z,23.40
2018-02-19T12:39:14.234Z,22.15
2018-02-19T12:41:42.504Z,26.85
2018-02-19T12:44:10.811Z,21.00
2018-02-19T12:46:38.482Z,27.80
2018-02-19T12:49:06.079Z,28.30
2018-02-19T12:51:33.614Z,23.27
2018-02-19T12:54:01.127Z,25.12
2018-02-19T12:56:29.396Z,30.37
2018-02-19T12:58:57.698Z,28.12
2018-02-19T13:01:25.201Z,26.83
2018-02-19T13:03:52.715Z,25.40
2018-02-19T13:06:20.240Z,25.60
2018-02-19T13:08:48.509Z,28.08
2018-02-19T13:11:16.019Z,24.55
2018-02-19T13:13:43.583Z,28.92
2018-02-19T13:16:11.108Z,33.25
2018-02-19T13:18:39.396Z,31.20
2018-02-19T13:21:07.018Z,26.87
2018-02-19T13:23:34.491Z,26.15
2018-02-19T13:26:02.789Z,30.27
2018-02-19T13:28:30.348Z,29.87
2018-02-19T13:30:57.863Z,25.73
2018-02-19T13:33:25.397Z,30.67
2018-02-19T13:35:52.947Z,29.92
2018-02-19T13:38:20.473Z,28.77
2018-02-19T13:40:48.756Z,27.65
2018-02-19T13:43:17.064Z,29.98
2018-02-19T13:45:44.583Z,37.83
2018-02-19T13:48:12.866Z,32.85
2018-02-19T13:50:41.168Z,32.13
2018-02-19T13:53:08.719Z,29.33
2018-02-19T13:55:36.971Z,33.50
2018-02-19T13:58:05.270Z,28.20
2018-02-19T14:00:32.787Z,30.12
2018-02-19T14:03:00.307Z,29.55
2018-02-19T14:05:27.824Z,31.50
2018-02-19T14:07:56.103Z,38.92
2018-02-19T14:10:24.375Z,28.83
2018-02-19T14:12:52.674Z,27.77
2018-02-19T14:15:20.186Z,30.50
2018-02-19T14:17:47.712Z,31.40
2018-02-19T14:20:15.237Z,30.20
2018-02-19T14:22:43.513Z,25.85
2018-02-19T14:25:11.782Z,25.45
2018-02-19T14:27:40.083Z,28.50
2018-02-19T14:30:07.602Z,27.87
2018-02-19T14:32:35.886Z,29.20
2018-02-19T14:35:04.187Z,29.15
2018-02-19T14:37:31.693Z,28.52
2018-02-19T14:39:59.212Z,27.17
2018-02-19T14:42:26.741Z,34.28
2018-02-19T14:44:55.023Z,31.25
2018-02-19T14:47:23.307Z,31.60
2018-02-19T14:49:51.596Z,28.87
2018-02-19T14:52:19.100Z,30.00
2018-02-19T14:54:46.619Z,28.50
2018-02-19T14:57:14.154Z,24.55
2018-02-19T14:59:42.427Z,29.35
2018-02-19T15:02:10.705Z,31.23
2018-02-19T15:04:39.003Z,27.73
2018-02-19T15:07:06.514Z,30.20
2018-02-19T15:09:35.030Z,28.92
2018-02-19T15:12:02.557Z,31.08
2018-02-19T15:14:30.078Z,35.08
2018-02-19T15:16:57.599Z,27.80
2018-02-19T15:19:25.902Z,27.48
2018-02-19T15:21:53.418Z,28.50
2018-02-19T15:24:20.922Z,26.25
2018-02-19T15:26:48.453Z,30.98
2018-02-19T15:29:16.737Z,25.23
2018-02-19T15:31:44.271Z,32.53
2018-02-19T15:34:12.564Z,31.52
2018-02-19T15:36:40.857Z,30.80
2018-02-19T15:39:08.374Z,31.08
2018-02-19T15:41:35.914Z,32.85
2018-02-19T15:44:03.438Z,32.65
2018-02-19T15:46:30.949Z,29.37
2018-02-19T15:48:58.670Z,34.13
2018-02-19T15:51:26.286Z,28.15
2018-02-19T15:53:54.557Z,37.97
2018-02-19T15:56:22.096Z,34.33
2018-02-19T15:58:49.616Z,32.97
2018-02-19T16:01:17.178Z,45.88
2018-02-19T16:03:45.449Z,28.95
2018-02-19T16:06:12.972Z,28.08
2018-02-19T16:08:41.269Z,33.05
2018-02-19T16:11:08.797Z,33.97
2018-02-19T16:13:36.329Z,27.52
2018-02-19T16:16:03.833Z,33.85
2018-02-19T16:18:32.120Z,36.42
2018-02-19T16:21:00.414Z,30.67
2018-02-19T16:23:27.969Z,33.78
2018-02-19T16:25:55.505Z,33.75
2018-02-19T16:28:23.768Z,34.17
2018-02-19T16:30:51.292Z,37.83
2018-02-19T16:33:18.849Z,34.20
2018-02-19T16:35:46.366Z,35.92
2018-02-19T16:38:14.200Z,33.05
2018-02-19T16:40:42.516Z,38.03
2018-02-19T16:43:10.026Z,55.08
2018-02-19T16:45:37.538Z,36.05
2018-02-19T16:48:05.060Z,29.15
2018-02-19T16:50:32.585Z,46.37
2018-02-19T16:53:00.115Z,39.35
2018-02-19T16:55:27.657Z,31.87
2018-02-19T16:57:56.109Z,34.95
2018-02-19T17:00:23.668Z,41.00
2018-02-19T17:02:51.168Z,34.17
2018-02-19T17:05:18.687Z,39.85
2018-02-19T17:07:46.189Z,33.22
2018-02-19T17:10:13.722Z,39.80
2018-02-19T17:12:42.002Z,34.80
2018-02-19T17:15:10.278Z,44.58
2018-02-19T17:17:38.577Z,34.88
2018-02-19T17:20:06.099Z,40.08
2018-02-19T17:22:33.608Z,40.45
2018-02-19T17:25:01.141Z,33.95
2018-02-19T17:27:29.418Z,36.55
2018-02-19T17:29:56.946Z,39.53
2018-02-19T17:32:24.501Z,35.80
2018-02-19T17:34:52.008Z,37.38
2018-02-19T17:37:19.510Z,31.33
2018-02-19T17:39:47.041Z,35.15
2018-02-19T17:42:14.560Z,33.58
2018-02-19T17:44:42.848Z,38.83
2018-02-19T17:47:10.397Z,35.05
2018-02-19T17:49:38.679Z,29.95
2018-02-19T17:52:06.968Z,31.80
2018-02-19T17:54:34.511Z,31.35
2018-02-19T17:57:02.790Z,45.25
2018-02-19T17:59:31.661Z,37.50
2018-02-19T18:01:59.198Z,33.67
2018-02-19T18:04:26.710Z,46.33
2018-02-19T18:06:54.284Z,39.50
2018-02-19T18:09:21.809Z,40.08
2018-02-19T18:11:50.073Z,33.08
2018-02-19T18:14:17.596Z,38.47
2018-02-19T18:16:45.122Z,35.53
2018-02-19T18:19:12.648Z,34.28
2018-02-19T18:21:40.155Z,38.50
2018-02-19T18:24:07.685Z,34.47
2018-02-19T18:26:35.975Z,33.25
2018-02-19T18:29:03.490Z,30.42
2018-02-19T18:31:31.017Z,32.33
2018-02-19T18:33:58.543Z,32.88
2018-02-19T18:36:26.069Z,34.63
2018-02-19T18:38:53.597Z,31.98
2018-02-19T18:41:21.115Z,36.30
2018-02-19T18:43:49.409Z,32.65
2018-02-19T18:46:16.959Z,36.28
2018-02-19T18:48:44.457Z,32.67
2018-02-19T18:51:11.985Z,31.12
2018-02-19T18:53:39.517Z,36.35
2018-02-19T18:56:07.800Z,37.28
2018-02-19T18:58:36.078Z,33.95
2018-02-19T19:01:04.378Z,33.90
2018-02-19T19:03:31.885Z,40.22
2018-02-19T19:05:59.396Z,40.55
2018-02-19T19:08:38.802Z,42.03
2018-02-19T19:11:07.092Z,38.95
2018-02-19T19:13:34.623Z,36.95
2018-02-19T19:16:02.180Z,38.75
2018-02-19T19:18:29.699Z,42.03
2018-02-19T19:20:57.231Z,32.53
2018-02-19T19:23:25.813Z,43.78
2018-02-19T19:25:53.322Z,37.40
2018-02-19T19:28:21.640Z,35.08
2018-02-19T19:30:49.904Z,48.97
2018-02-19T19:33:18.198Z,34.72
2018-02-19T19:35:45.743Z,36.30
2018-02-19T19:38:14.027Z,43.22
2018-02-19T19:40:42.312Z,40.50
2018-02-19T19:43:09.855Z,38.42
2018-02-19T19:45:38.130Z,48.58
2018-02-19T19:48:06.398Z,54.95
2018-02-19T19:50:33.930Z,41.28
2018-02-19T19:53:01.452Z,41.95
2018-02-19T19:55:28.966Z,31.48
2018-02-19T19:57:56.510Z,38.92
2018-02-19T20:00:24.030Z,33.85
2018-02-19T20:02:51.607Z,36.70
2018-02-19T20:05:19.184Z,42.67
2018-02-19T20:07:46.681Z,39.88
2018-02-19T20:10:14.963Z,38.05
2018-02-19T20:12:43.262Z,38.90
2018-02-19T20:15:10.774Z,40.50
2018-02-19T20:17:38.282Z,40.30
2018-02-19T20:20:05.818Z,38.70
2018-02-19T20:22:34.099Z,41.55
2018-02-19T20:25:01.608Z,39.45
2018-02-19T20:27:29.143Z,46.33
2018-02-19T20:29:56.659Z,48.53
2018-02-19T20:32:24.950Z,42.95
2018-02-19T20:34:52.502Z,39.35
2018-02-19T20:37:20.777Z,39.13
2018-02-19T20:39:49.058Z,40.83
2018-02-19T20:42:17.359Z,38.72
2018-02-19T20:44:44.933Z,46.72
2018-02-19T20:47:12.455Z,52.53
2018-02-19T20:49:40.776Z,43.53
2018-02-19T20:52:08.294Z,40.70
2018-02-19T20:54:35.813Z,51.67
2018-02-19T20:57:03.342Z,40.38
2018-02-19T20:59:30.861Z,48.95
2018-02-19T21:01:59.152Z,55.83
2018-02-19T21:04:26.690Z,43.58
2018-02-19T21:06:54.970Z,38.85
2018-02-19T21:09:23.255Z,47.65
2018-02-19T21:11:50.794Z,44.35
2018-02-19T21:14:19.074Z,40.17
2018-02-19T21:16:47.365Z,38.33
2018-02-19T21:19:15.684Z,39.70
2018-02-19T21:21:43.199Z,50.00
2018-02-19T21:24:11.482Z,40.17
2018-02-19T21:26:39.020Z,42.58
2018-02-19T21:29:07.307Z,51.80
2018-02-19T21:31:35.597Z,44.15
2018-02-19T21:34:03.476Z,40.88
2018-02-19T21:36:31.002Z,41.53
2018-02-19T21:38:59.649Z,40.97
2018-02-19T21:41:27.186Z,38.35
2018-02-19T21:43:54.758Z,41.17
2018-02-19T21:46:22.275Z,46.20
2018-02-19T21:48:50.576Z,40.33
2018-02-19T21:51:18.094Z,46.97
2018-02-19T21:53:46.384Z,44.22
2018-02-19T21:56:14.688Z,46.63
2018-02-19T21:58:42.212Z,41.30
2018-02-19T22:01:10.500Z,51.85
2018-02-19T22:03:38.804Z,42.15
2018-02-19T22:06:06.305Z,48.30
2018-02-19T22:08:33.815Z,44.80
2018-02-19T22:11:01.351Z,46.40
2018-02-19T22:13:29.631Z,54.72
2018-02-19T22:15:57.916Z,51.85
2018-02-19T22:18:25.452Z,51.78
2018-02-19T22:20:53.730Z,44.90
2018-02-19T22:23:22.005Z,47.97
2018-02-19T22:25:50.305Z,46.08
2018-02-19T22:28:17.828Z,43.95
2018-02-19T22:30:45.338Z,48.28
2018-02-19T22:33:12.888Z,41.50
2018-02-19T22:35:40.402Z,52.10
2018-02-19T22:38:07.916Z,47.25
2018-02-19T22:40:35.447Z,45.58
2018-02-19T22:43:03.725Z,46.03
2018-02-19T22:45:31.988Z,54.55
2018-02-19T22:48:00.287Z,51.35
2018-02-19T22:50:27.801Z,57.35
2018-02-19T22:52:55.325Z,62.58
2018-02-19T22:55:22.863Z,58.22
2018-02-19T22:57:50.375Z,58.50
2018-02-19T23:00:17.893Z,52.17
2018-02-19T23:02:45.428Z,46.83
2018-02-19T23:05:13.724Z,56.80
2018-02-19T23:07:41.238Z,54.50
2018-02-19T23:10:08.778Z,46.45
2018-02-19T23:12:36.304Z,48.40
2018-02-19T23:15:03.832Z,51.65
2018-02-19T23:17:32.121Z,55.67
2018-02-19T23:19:59.645Z,53.95
2018-02-19T23:22:27.154Z,51.10
2018-02-19T23:24:54.682Z,53.08
2018-02-19T23:27:22.963Z,59.58
2018-02-19T23:29:51.251Z,56.85
2018-02-19T23:32:18.787Z,63.03
2018-02-19T23:34:47.061Z,61.47
2018-02-19T23:37:14.569Z,64.82
2018-02-19T23:39:42.102Z,66.75
2018-02-19T23:42:09.622Z,73.60
2018-02-19T23:44:37.136Z,57.78
2018-02-19T23:47:04.685Z,53.08
2018-02-19T23:49:32.819Z,54.45
2018-02-19T23:52:00.321Z,61.70
2018-02-19T23:54:34.583Z,49.13
2018-02-19T23:57:02.098Z,62.25
2018-02-19T23:59:29.604Z,55.78
